Time;durP1;ratioP1;P1;durP2;ratioP2;P2;SDS_P1;SDS_P2;PMS_P1;PMS_P2;Temp;Humidity;BMP_temperature;BMP_pressure;BME280_temperature;BME280_humidity;BME280_pressure;Samples;Min_cycle;Max_cycle;Signal;HPM_P1;HPM_P2
2022/03/23 00:00:05;;;;;;;0.10;0.10;;;;;;;;;;5083148;28;20270;-78
2022/03/23 00:02:32;;;;;;;0.13;0.13;;;;;;;;;;5071654;28;20315;-77
2022/03/23 00:04:58;;;;;;;0.10;0.10;;;;;;;;;;5083498;28;20400;-77
2022/03/23 00:07:24;;;;;;;0.10;0.10;;;;;;;;;;5071683;28;20252;-77
2022/03/23 00:09:53;;;;;;;0.10;0.10;;;;;;;;;;5083264;28;20203;-78
2022/03/23 00:12:22;;;;;;;0.10;0.10;;;;;;;;;;5071078;28;20246;-76
2022/03/23 00:14:50;;;;;;;0.10;0.10;;;;;;;;;;5082704;28;20225;-77
2022/03/23 00:17:16;;;;;;;0.10;0.10;;;;;;;;;;5071365;28;20277;-77
2022/03/23 00:19:44;;;;;;;0.10;0.10;;;;;;;;;;5083018;28;20392;-77
2022/03/23 00:22:11;;;;;;;0.10;0.10;;;;;;;;;;5071471;28;20302;-76
2022/03/23 00:24:37;;;;;;;0.10;0.10;;;;;;;;;;5082841;28;20264;-77
2022/03/23 00:27:04;;;;;;;0.10;0.10;;;;;;;;;;5071358;28;20306;-76
2022/03/23 00:29:30;;;;;;;0.10;0.10;;;;;;;;;;5082856;28;20209;-75
2022/03/23 00:31:58;;;;;;;0.50;0.50;;;;;;;;;;5071462;28;20241;-75
2022/03/23 00:34:24;;;;;;;0.10;0.10;;;;;;;;;;5082942;28;20237;-76
2022/03/23 00:36:50;;;;;;;0.10;0.10;;;;;;;;;;5071230;28;20307;-76
2022/03/23 00:39:17;;;;;;;0.10;0.10;;;;;;;;;;5082524;28;20233;-76
2022/03/23 00:41:49;;;;;;;0.10;0.10;;;;;;;;;;5071492;28;20268;-77
2022/03/23 00:44:15;;;;;;;0.10;0.10;;;;;;;;;;5082733;28;20206;-77
2022/03/23 00:46:42;;;;;;;0.10;0.10;;;;;;;;;;5071199;28;20243;-75
2022/03/23 00:49:12;;;;;;;0.20;0.20;;;;;;;;;;5082808;28;20210;-77
2022/03/23 00:51:39;;;;;;;0.10;0.10;;;;;;;;;;5071515;28;20291;-76
2022/03/23 00:54:09;;;;;;;0.10;0.10;;;;;;;;;;5082418;28;20240;-77
2022/03/23 00:56:36;;;;;;;0.10;0.10;;;;;;;;;;5071068;28;20269;-78
2022/03/23 00:59:03;;;;;;;0.10;0.10;;;;;;;;;;5082399;28;20332;-76
2022/03/23 01:01:30;;;;;;;0.10;0.10;;;;;;;;;;5071205;28;20304;-76
2022/03/23 01:03:57;;;;;;;0.10;0.10;;;;;;;;;;5082411;28;20249;-76
2022/03/23 01:06:24;;;;;;;0.10;0.10;;;;;;;;;;5071345;28;20245;-76
2022/03/23 01:08:51;;;;;;;0.10;0.10;;;;;;;;;;5082130;28;20382;-76
2022/03/23 01:11:17;;;;;;;0.10;0.10;;;;;;;;;;5071578;28;20244;-77
2022/03/23 01:13:43;;;;;;;0.10;0.10;;;;;;;;;;5082041;28;20246;-76
2022/03/23 01:16:10;;;;;;;0.10;0.10;;;;;;;;;;5070940;28;20242;-76
2022/03/23 01:18:36;;;;;;;0.10;0.10;;;;;;;;;;5081927;28;20194;-76
2022/03/23 01:21:02;;;;;;;0.10;0.10;;;;;;;;;;5071399;28;20243;-76
2022/03/23 01:23:30;;;;;;;0.93;0.93;;;;;;;;;;5081953;28;20366;-77
2022/03/23 01:25:57;;;;;;;0.10;0.10;;;;;;;;;;5075224;28;20318;-77
2022/03/23 01:28:23;;;;;;;0.10;0.10;;;;;;;;;;5085484;28;20206;-76
2022/03/23 01:30:50;;;;;;;0.10;0.10;;;;;;;;;;5074917;28;20416;-77
2022/03/23 01:33:16;;;;;;;0.10;0.10;;;;;;;;;;5085057;28;20358;-77
2022/03/23 01:35:42;;;;;;;0.10;0.10;;;;;;;;;;5075203;28;20479;-77
2022/03/23 01:38:08;;;;;;;0.10;0.10;;;;;;;;;;5085128;28;20522;-77
2022/03/23 01:40:36;;;;;;;0.10;0.10;;;;;;;;;;5075060;28;20562;-76
2022/03/23 01:43:03;;;;;;;0.10;0.10;;;;;;;;;;5084831;28;20562;-76
2022/03/23 01:45:29;;;;;;;0.10;0.10;;;;;;;;;;5075381;28;20206;-77
2022/03/23 01:47:55;;;;;;;0.10;0.10;;;;;;;;;;5084635;28;20197;-76
2022/03/23 01:50:22;;;;;;;0.10;0.10;;;;;;;;;;5074794;28;20242;-76
2022/03/23 01:52:48;;;;;;;0.10;0.10;;;;;;;;;;5084678;28;20206;-78
2022/03/23 01:55:17;;;;;;;0.10;0.10;;;;;;;;;;5074935;28;20224;-75
2022/03/23 01:57:46;;;;;;;0.10;0.10;;;;;;;;;;5084525;28;20199;-77
2022/03/23 02:00:15;;;;;;;0.10;0.10;;;;;;;;;;5074702;28;20214;-77
2022/03/23 02:02:41;;;;;;;0.10;0.10;;;;;;;;;;5084487;28;20210;-77
2022/03/23 02:05:08;;;;;;;0.10;0.10;;;;;;;;;;5074927;28;20269;-77
2022/03/23 02:07:36;;;;;;;0.10;0.10;;;;;;;;;;5084205;28;20210;-77
2022/03/23 02:10:04;;;;;;;0.10;0.10;;;;;;;;;;5085452;28;20215;-76
2022/03/23 02:12:30;;;;;;;0.10;0.10;;;;;;;;;;5057208;28;20208;-76
2022/03/23 02:15:00;;;;;;;0.10;0.10;;;;;;;;;;5085340;28;20293;-78
2022/03/23 02:17:26;;;;;;;0.10;0.10;;;;;;;;;;5073461;28;20245;-76
2022/03/23 02:19:53;;;;;;;0.10;0.10;;;;;;;;;;5084836;28;20203;-76
2022/03/23 02:22:21;;;;;;;0.10;0.10;;;;;;;;;;5073502;28;20240;-78
2022/03/23 02:24:48;;;;;;;0.10;0.10;;;;;;;;;;5084730;28;20406;-77
2022/03/23 02:27:14;;;;;;;0.17;0.17;;;;;;;;;;5073350;28;20251;-77
2022/03/23 02:29:40;;;;;;;0.10;0.10;;;;;;;;;;5085187;28;20248;-77
2022/03/23 02:32:07;;;;;;;0.10;0.10;;;;;;;;;;5073264;28;20309;-77
2022/03/23 02:34:33;;;;;;;0.10;0.10;;;;;;;;;;5084670;28;20238;-77
2022/03/23 02:37:00;;;;;;;0.10;0.10;;;;;;;;;;5064458;28;20248;-76
2022/03/23 02:39:27;;;;;;;0.10;0.10;;;;;;;;;;5080760;28;20205;-76
2022/03/23 02:41:56;;;;;;;0.10;0.10;;;;;;;;;;5073216;28;20478;-77
2022/03/23 02:44:23;;;;;;;0.10;0.10;;;;;;;;;;5084146;28;20408;-76
2022/03/23 02:46:49;;;;;;;0.10;0.10;;;;;;;;;;5072929;28;20250;-77
2022/03/23 02:49:16;;;;;;;0.10;0.10;;;;;;;;;;5084495;28;20524;-76
2022/03/23 02:51:43;;;;;;;0.10;0.10;;;;;;;;;;5072868;28;20299;-77
2022/03/23 03:02:31;;;;;;;0.10;0.10;;;;;;;;;;5070502;28;20289;-76
2022/03/23 03:04:59;;;;;;;0.10;0.10;;;;;;;;;;5065804;28;20203;-77
2022/03/23 03:07:25;;;;;;;0.10;0.10;;;;;;;;;;5072829;28;20265;-76
2022/03/23 03:09:51;;;;;;;0.10;0.10;;;;;;;;;;5084000;28;20204;-76
2022/03/23 03:12:19;;;;;;;0.10;0.10;;;;;;;;;;5072620;28;20250;-77
2022/03/23 03:14:45;;;;;;;0.10;0.10;;;;;;;;;;5083661;28;20281;-77
2022/03/23 03:17:12;;;;;;;0.10;0.10;;;;;;;;;;5072742;28;20307;-76
2022/03/23 03:19:38;;;;;;;0.27;0.27;;;;;;;;;;5083726;28;20204;-76
2022/03/23 03:22:05;;;;;;;0.10;0.10;;;;;;;;;;5072525;28;20244;-77
2022/03/23 03:24:32;;;;;;;0.10;0.10;;;;;;;;;;5084193;28;20247;-77
2022/03/23 03:26:58;;;;;;;0.10;0.10;;;;;;;;;;5055251;28;20481;-76
2022/03/23 03:29:26;;;;;;;0.10;0.10;;;;;;;;;;5083423;28;20211;-77
2022/03/23 03:31:54;;;;;;;0.10;0.10;;;;;;;;;;5072204;28;20249;-76
2022/03/23 03:34:21;;;;;;;0.10;0.10;;;;;;;;;;5083390;28;20230;-77
2022/03/23 03:36:48;;;;;;;0.10;0.10;;;;;;;;;;5072236;28;20458;-77
2022/03/23 03:39:15;;;;;;;0.10;0.10;;;;;;;;;;5083698;28;20218;-75
2022/03/23 03:41:41;;;;;;;0.10;0.10;;;;;;;;;;5072419;28;20262;-76
2022/03/23 03:44:08;;;;;;;0.10;0.10;;;;;;;;;;5083379;28;20222;-78
2022/03/23 03:46:36;;;;;;;0.10;0.10;;;;;;;;;;5071279;28;20321;-77
2022/03/23 03:49:02;;;;;;;0.10;0.10;;;;;;;;;;5082695;28;20266;-77
2022/03/23 03:51:29;;;;;;;0.10;0.10;;;;;;;;;;5072171;28;20244;-75
2022/03/23 03:53:55;;;;;;;0.60;0.60;;;;;;;;;;5082768;28;20212;-76
2022/03/23 03:56:21;;;;;;;0.10;0.10;;;;;;;;;;5071956;28;20253;-79
2022/03/23 03:58:48;;;;;;;0.10;0.10;;;;;;;;;;5082843;28;20497;-76
2022/03/23 04:01:15;;;;;;;0.10;0.10;;;;;;;;;;5072499;28;20255;-76
2022/03/23 04:03:43;;;;;;;0.10;0.10;;;;;;;;;;5082844;28;20207;-76
2022/03/23 04:06:10;;;;;;;0.10;0.10;;;;;;;;;;5072338;28;20272;-76
2022/03/23 04:08:36;;;;;;;0.10;0.10;;;;;;;;;;5082502;28;20269;-76
2022/03/23 04:11:03;;;;;;;0.10;0.10;;;;;;;;;;5072425;28;20251;-77
2022/03/23 04:13:29;;;;;;;0.10;0.10;;;;;;;;;;5082629;28;20295;-76
2022/03/23 04:15:55;;;;;;;0.10;0.10;;;;;;;;;;5072229;28;20436;-76
2022/03/23 04:18:22;;;;;;;0.10;0.10;;;;;;;;;;5082661;28;20212;-78
2022/03/23 04:20:49;;;;;;;0.10;0.10;;;;;;;;;;5072265;28;20269;-76
2022/03/23 04:23:16;;;;;;;0.10;0.10;;;;;;;;;;5082409;28;20222;-78
2022/03/23 04:25:42;;;;;;;0.10;0.10;;;;;;;;;;5072575;28;20240;-77
2022/03/23 04:28:08;;;;;;;0.10;0.10;;;;;;;;;;5082425;28;20282;-77
2022/03/23 04:30:35;;;;;;;0.10;0.10;;;;;;;;;;5072069;28;20310;-77
2022/03/23 04:33:01;;;;;;;0.10;0.10;;;;;;;;;;5082078;28;20197;-76
2022/03/23 04:35:28;;;;;;;0.10;0.10;;;;;;;;;;5071227;28;20241;-77
2022/03/23 04:37:56;;;;;;;0.10;0.10;;;;;;;;;;5082007;28;20266;-77
2022/03/23 04:40:23;;;;;;;0.10;0.10;;;;;;;;;;5072273;28;20250;-76
2022/03/23 04:42:53;;;;;;;1.17;1.17;;;;;;;;;;5081629;28;20212;-77
2022/03/23 04:45:19;;;;;;;0.10;0.10;;;;;;;;;;5072186;28;20470;-77
2022/03/23 04:47:48;;;;;;;0.10;0.10;;;;;;;;;;5081986;28;20278;-77
2022/03/23 04:50:14;;;;;;;0.10;0.10;;;;;;;;;;5072287;28;20208;-76
2022/03/23 04:52:41;;;;;;;0.10;0.10;;;;;;;;;;5081557;28;20199;-78
2022/03/23 04:55:10;;;;;;;0.20;0.20;;;;;;;;;;5072057;28;20288;-78
2022/03/23 04:57:37;;;;;;;0.10;0.10;;;;;;;;;;5081515;28;20204;-77
2022/03/23 05:00:04;;;;;;;0.10;0.10;;;;;;;;;;5085024;28;20203;-77
2022/03/23 05:02:30;;;;;;;1.70;1.70;;;;;;;;;;5058301;28;20235;-76
2022/03/23 05:04:56;;;;;;;1.80;1.80;;;;;;;;;;5086436;28;20246;-76
2022/03/23 05:07:23;;;;;;;0.10;0.10;;;;;;;;;;5075154;28;20265;-77
2022/03/23 05:09:49;;;;;;;13.37;12.73;;;;;;;;;;5086604;28;20237;-76
2022/03/23 05:12:17;;;;;;;0.10;0.10;;;;;;;;;;5074702;28;20338;-78
2022/03/23 05:14:46;;;;;;;0.10;0.10;;;;;;;;;;5086400;28;20428;-78
2022/03/23 05:17:12;;;;;;;0.83;0.83;;;;;;;;;;5074683;28;20243;-78
2022/03/23 05:19:39;;;;;;;2.70;2.53;;;;;;;;;;5086166;28;20226;-78
2022/03/23 05:22:05;;;;;;;0.23;0.23;;;;;;;;;;5074855;28;20238;-79
2022/03/23 05:24:31;;;;;;;0.10;0.10;;;;;;;;;;5086168;28;20294;-76
2022/03/23 05:26:58;;;;;;;0.10;0.10;;;;;;;;;;5074663;28;20250;-77
2022/03/23 05:29:25;;;;;;;0.10;0.10;;;;;;;;;;5086224;28;20279;-77
2022/03/23 05:31:52;;;;;;;0.10;0.10;;;;;;;;;;5057600;28;20306;-77
2022/03/23 05:34:19;;;;;;;0.10;0.10;;;;;;;;;;5085612;28;20224;-78
2022/03/23 05:36:45;;;;;;;0.10;0.10;;;;;;;;;;5074599;28;20247;-76
2022/03/23 05:39:12;;;;;;;0.17;0.17;;;;;;;;;;5085775;28;20216;-77
2022/03/23 05:41:38;;;;;;;0.10;0.10;;;;;;;;;;5074504;28;20252;-76
2022/03/23 05:44:05;;;;;;;0.10;0.10;;;;;;;;;;5067661;28;20200;-77
2022/03/23 05:46:36;;;;;;;0.10;0.10;;;;;;;;;;5074477;28;20445;-77
2022/03/23 05:49:03;;;;;;;0.10;0.10;;;;;;;;;;5085439;28;20213;-77
2022/03/23 05:51:29;;;;;;;0.10;0.10;;;;;;;;;;5074386;28;20244;-76
2022/03/23 05:53:55;;;;;;;0.10;0.10;;;;;;;;;;5085381;28;20227;-77
2022/03/23 05:56:22;;;;;;;0.20;0.20;;;;;;;;;;5074402;28;20239;-77
2022/03/23 05:58:48;;;;;;;0.10;0.10;;;;;;;;;;5085030;28;20262;-78
2022/03/23 06:01:14;;;;;;;0.10;0.10;;;;;;;;;;5074260;28;20254;-76
2022/03/23 06:03:42;;;;;;;0.10;0.10;;;;;;;;;;5084765;28;20531;-77
2022/03/23 06:06:09;;;;;;;0.10;0.10;;;;;;;;;;5074065;28;20585;-76
2022/03/23 06:08:36;;;;;;;0.10;0.10;;;;;;;;;;5084412;28;20223;-75
2022/03/23 06:11:05;;;;;;;0.10;0.10;;;;;;;;;;5073146;28;20265;-76
2022/03/23 06:13:31;;;;;;;0.10;0.10;;;;;;;;;;5084819;28;20232;-76
2022/03/23 06:15:57;;;;;;;1.97;1.90;;;;;;;;;;5074298;28;20240;-75
2022/03/23 06:18:24;;;;;;;0.10;0.10;;;;;;;;;;5084630;28;20377;-77
2022/03/23 06:20:52;;;;;;;0.10;0.10;;;;;;;;;;5074355;28;20250;-76
2022/03/23 06:23:18;;;;;;;0.10;0.10;;;;;;;;;;5084425;28;20205;-77
2022/03/23 06:25:45;;;;;;;0.10;0.10;;;;;;;;;;5074519;28;20255;-77
2022/03/23 06:28:11;;;;;;;0.10;0.10;;;;;;;;;;5083781;28;20211;-76
2022/03/23 06:30:37;;;;;;;0.10;0.10;;;;;;;;;;5074390;28;20245;-76
2022/03/23 06:33:04;;;;;;;0.10;0.10;;;;;;;;;;5084019;28;20184;-76
2022/03/23 06:35:30;;;;;;;0.10;0.10;;;;;;;;;;5074218;28;20269;-75
2022/03/23 06:37:58;;;;;;;0.40;0.40;;;;;;;;;;5083841;28;20207;-75
2022/03/23 06:40:25;;;;;;;0.20;0.20;;;;;;;;;;5074309;28;20551;-76
2022/03/23 06:42:52;;;;;;;0.17;0.17;;;;;;;;;;5083562;28;20205;-75
2022/03/23 06:45:18;;;;;;;0.10;0.10;;;;;;;;;;5073927;28;20199;-76
2022/03/23 06:47:44;;;;;;;0.10;0.10;;;;;;;;;;5083442;28;20256;-76
2022/03/23 06:50:11;;;;;;;8.60;2.83;;;;;;;;;;5074294;28;20204;-76
2022/03/23 06:52:37;;;;;;;0.40;0.40;;;;;;;;;;5083358;28;20196;-77
2022/03/23 06:55:06;;;;;;;0.20;0.20;;;;;;;;;;5084440;28;20224;-76
2022/03/23 06:57:32;;;;;;;1.47;1.43;;;;;;;;;;5072089;28;20243;-78
2022/03/23 06:59:58;;;;;;;0.10;0.10;;;;;;;;;;5084551;28;20251;-76
2022/03/23 07:02:24;;;;;;;0.77;0.77;;;;;;;;;;5072563;28;20246;-77
2022/03/23 07:04:51;;;;;;;0.20;0.20;;;;;;;;;;5084182;28;20206;-76
2022/03/23 07:07:17;;;;;;;0.10;0.10;;;;;;;;;;5071739;28;20253;-76
2022/03/23 07:09:43;;;;;;;0.17;0.17;;;;;;;;;;5083614;28;20250;-77
2022/03/23 07:12:12;;;;;;;0.10;0.10;;;;;;;;;;5072468;28;20243;-76
2022/03/23 07:14:38;;;;;;;0.10;0.10;;;;;;;;;;5083926;28;20216;-75
2022/03/23 07:17:05;;;;;;;0.10;0.10;;;;;;;;;;5072073;28;20240;-76
2022/03/23 07:19:33;;;;;;;0.10;0.10;;;;;;;;;;5083622;28;20207;-77
2022/03/23 07:22:00;;;;;;;0.10;0.10;;;;;;;;;;5071660;28;20248;-77
2022/03/23 07:24:27;;;;;;;2.33;2.30;;;;;;;;;;5083651;28;20203;-77
2022/03/23 07:26:53;;;;;;;0.10;0.10;;;;;;;;;;5072400;28;20248;-77
2022/03/23 07:29:21;;;;;;;0.17;0.17;;;;;;;;;;5083286;28;20398;-78
2022/03/23 07:31:47;;;;;;;0.10;0.10;;;;;;;;;;5072030;28;20289;-76
2022/03/23 07:34:18;;;;;;;0.10;0.10;;;;;;;;;;5083268;28;20439;-75
2022/03/23 07:36:45;;;;;;;0.10;0.10;;;;;;;;;;5071614;28;20312;-76
2022/03/23 07:39:45;;;;;;;;;;;;;;;;;;;;;
2022/03/23 07:42:12;;;;;;;0.10;0.10;;;;;;;;;;5009370;28;20266;-76
2022/03/23 07:44:39;;;;;;;0.77;0.77;;;;;;;;;;5061130;28;20393;-77
2022/03/23 07:47:10;;;;;;;0.10;0.10;;;;;;;;;;5050094;28;20247;-76
2022/03/23 07:49:43;;;;;;;0.10;0.10;;;;;;;;;;5060935;28;20203;-76
2022/03/23 07:52:10;;;;;;;0.10;0.10;;;;;;;;;;5002894;28;20245;-77
2022/03/23 07:54:44;;;;;;;0.10;0.10;;;;;;;;;;5001200;28;20214;-78
2022/03/23 07:57:13;;;;;;;0.10;0.10;;;;;;;;;;4940612;28;20329;-77
2022/03/23 07:59:42;;;;;;;1.33;1.33;;;;;;;;;;4943059;29;20580;-75
2022/03/23 08:02:09;;;;;;;0.10;0.10;;;;;;;;;;4917248;29;20312;-76
2022/03/23 08:04:35;;;;;;;0.10;0.10;;;;;;;;;;4924077;29;20500;-76
2022/03/23 08:09:45;;;;;;;0.10;0.10;;;;;;;;;;4904405;29;20201;-76
2022/03/23 08:22:58;;;;;;;0.10;0.10;;;;;;;;;;4951481;29;20515;-75
2022/03/23 08:28:05;;;;;;;0.60;0.60;;;;;;;;;;4999405;28;20220;-78
2022/03/23 08:30:32;;;;;;;0.30;0.30;;;;;;;;;;4988043;28;20259;-74
2022/03/23 08:33:02;;;;;;;0.10;0.10;;;;;;;;;;4988613;28;20212;-76
2022/03/23 08:35:29;;;;;;;0.10;0.10;;;;;;;;;;4975213;28;20637;-76
2022/03/23 08:37:55;;;;;;;0.10;0.10;;;;;;;;;;5041464;28;20210;-78
2022/03/23 08:40:23;;;;;;;0.30;0.30;;;;;;;;;;5053081;28;20284;-79
2022/03/23 08:42:49;;;;;;;0.00;0.00;;;;;;;;;;5050062;28;20217;-79
2022/03/23 08:45:17;;;;;;;2.40;2.38;;;;;;;;;;5053516;28;20474;-78
2022/03/23 08:47:44;;;;;;;0.10;0.10;;;;;;;;;;5049831;28;20466;-76
2022/03/23 08:50:11;;;;;;;0.08;0.08;;;;;;;;;;5053570;28;20220;-78
2022/03/23 08:52:38;;;;;;;0.00;0.00;;;;;;;;;;5072580;28;20225;-78
2022/03/23 08:55:05;;;;;;;0.10;0.10;;;;;;;;;;5086891;28;20250;-77
2022/03/23 08:57:33;;;;;;;0.08;0.08;;;;;;;;;;5075531;28;20241;-77
2022/03/23 08:59:59;;;;;;;0.32;0.32;;;;;;;;;;5086652;28;20205;-77
2022/03/23 09:02:26;;;;;;;4.43;4.20;;;;;;;;;;5074865;28;20240;-76
2022/03/23 09:05:19;;;;;;;0.10;0.10;;;;;;;;;;5086834;28;20282;-77
2022/03/23 09:07:45;;;;;;;0.03;0.03;;;;;;;;;;5060453;28;20213;-68
2022/03/23 09:10:13;;;;;;;0.00;0.00;;;;;;;;;;5086396;28;20218;-67
2022/03/23 09:12:41;;;;;;;1.65;1.65;;;;;;;;;;5073990;28;20299;-68
2022/03/23 09:15:08;;;;;;;0.08;0.08;;;;;;;;;;5075623;28;20272;-67
2022/03/23 09:17:35;;;;;;;1.10;1.10;;;;;;;;;;5084971;28;20249;-66
2022/03/23 09:20:01;;;;;;;0.00;0.00;;;;;;;;;;5086264;28;20213;-66
2022/03/23 09:22:28;;;;;;;0.05;0.05;;;;;;;;;;5074624;28;20240;-66
2022/03/23 09:24:54;;;;;;;0.00;0.00;;;;;;;;;;5085778;28;20207;-66
2022/03/23 09:27:21;;;;;;;2.85;2.75;;;;;;;;;;5074432;28;20290;-67
2022/03/23 09:29:48;;;;;;;0.00;0.00;;;;;;;;;;5086102;28;20237;-65
2022/03/23 09:32:17;;;;;;;0.00;0.00;;;;;;;;;;5074485;28;20245;-66
2022/03/23 09:34:43;;;;;;;0.00;0.00;;;;;;;;;;5085663;28;20231;-66
2022/03/23 09:39:54;;;;;;;0.00;0.00;;;;;;;;;;5085897;28;20193;-66
2022/03/23 09:42:21;;;;;;;0.20;0.20;;;;;;;;;;5074155;28;20243;-66
2022/03/23 09:44:49;;;;;;;0.30;0.30;;;;;;;;;;5085307;28;20222;-65
2022/03/23 09:47:15;;;;;;;0.10;0.10;;;;;;;;;;5074433;28;20496;-66
2022/03/23 09:49:46;;;;;;;0.05;0.05;;;;;;;;;;5085805;28;20213;-65
2022/03/23 09:52:12;;;;;;;0.00;0.00;;;;;;;;;;5074070;28;20268;-65
2022/03/23 09:54:41;;;;;;;0.10;0.10;;;;;;;;;;5085748;28;20202;-67
2022/03/23 09:57:08;;;;;;;0.00;0.00;;;;;;;;;;5074056;28;20630;-66
2022/03/23 09:59:34;;;;;;;0.00;0.00;;;;;;;;;;5085607;28;20196;-67
2022/03/23 10:02:16;;;;;;;0.00;0.00;;;;;;;;;;5073981;28;20262;-67
2022/03/23 10:05:13;;;;;;;1.08;1.08;;;;;;;;;;5085489;28;20379;-67
2022/03/23 10:07:43;;;;;;;0.10;0.10;;;;;;;;;;4984102;28;20487;-66
2022/03/23 10:10:35;;;;;;;0.00;0.00;;;;;;;;;;5052997;28;20241;-67
2022/03/23 10:13:20;;;;;;;0.10;0.10;;;;;;;;;;5084548;28;20436;-67
2022/03/23 10:16:04;;;;;;;0.10;0.10;;;;;;;;;;5074148;28;20246;-66
2022/03/23 10:18:49;;;;;;;0.10;0.10;;;;;;;;;;5084355;28;20192;-67
2022/03/23 10:21:15;;;;;;;0.00;0.00;;;;;;;;;;5073792;28;20247;-67
2022/03/23 10:23:51;;;;;;;0.00;0.00;;;;;;;;;;5084175;28;20199;-67
2022/03/23 10:26:18;;;;;;;0.00;0.00;;;;;;;;;;5073956;28;20307;-67
2022/03/23 10:28:45;;;;;;;0.00;0.00;;;;;;;;;;5084546;28;20415;-64
2022/03/23 10:31:16;;;;;;;0.00;0.00;;;;;;;;;;5073655;28;20243;-68
2022/03/23 10:33:43;;;;;;;0.10;0.10;;;;;;;;;;5083993;28;20271;-67
2022/03/23 10:36:09;;;;;;;1.05;1.05;;;;;;;;;;5073523;28;20282;-66
2022/03/23 10:38:38;;;;;;;0.00;0.00;;;;;;;;;;5084200;28;20204;-67
2022/03/23 10:41:11;;;;;;;0.00;0.00;;;;;;;;;;5073600;28;20243;-67
2022/03/23 10:43:38;;;;;;;0.00;0.00;;;;;;;;;;5084353;28;20191;-67
2022/03/23 10:46:07;;;;;;;0.10;0.10;;;;;;;;;;5073531;28;20251;-67
2022/03/23 10:48:34;;;;;;;0.00;0.00;;;;;;;;;;5084200;28;20331;-66
2022/03/23 10:51:00;;;;;;;0.00;0.00;;;;;;;;;;5073405;28;20247;-67
2022/03/23 10:53:35;;;;;;;1.45;1.45;;;;;;;;;;5083758;28;20211;-66
2022/03/23 10:56:02;;;;;;;0.10;0.10;;;;;;;;;;5073430;28;20238;-66
2022/03/23 10:58:30;;;;;;;0.10;0.10;;;;;;;;;;5082920;28;20522;-67
2022/03/23 11:00:57;;;;;;;0.00;0.00;;;;;;;;;;5073180;28;20550;-66
2022/03/23 11:03:38;;;;;;;0.47;0.47;;;;;;;;;;5083724;28;20393;-66
2022/03/23 11:06:06;;;;;;;0.00;0.00;;;;;;;;;;5072993;28;20438;-66
2022/03/23 11:08:32;;;;;;;0.00;0.00;;;;;;;;;;5083437;28;20452;-66
2022/03/23 11:16:30;;;;;;;0.00;0.00;;;;;;;;;;5072968;28;20241;-67
2022/03/23 11:18:57;;;;;;;0.00;0.00;;;;;;;;;;5083845;28;20204;-66
2022/03/23 11:21:24;;;;;;;0.00;0.00;;;;;;;;;;5072841;28;20238;-67
2022/03/23 11:23:50;;;;;;;1.20;1.20;;;;;;;;;;5083178;28;20540;-69
2022/03/23 11:26:17;;;;;;;0.00;0.00;;;;;;;;;;5072434;28;20239;-68
2022/03/23 11:28:45;;;;;;;0.00;0.00;;;;;;;;;;5082902;28;20433;-67
2022/03/23 11:31:12;;;;;;;0.00;0.00;;;;;;;;;;5072635;28;20567;-66
2022/03/23 11:33:39;;;;;;;0.00;0.00;;;;;;;;;;5082844;28;20270;-68
2022/03/23 11:36:08;;;;;;;5.65;5.28;;;;;;;;;;5072234;28;20238;-66
2022/03/23 11:38:34;;;;;;;0.40;0.38;;;;;;;;;;5083139;28;20246;-66
2022/03/23 11:41:01;;;;;;;0.00;0.00;;;;;;;;;;5072714;28;20266;-66
2022/03/23 11:43:29;;;;;;;0.65;0.65;;;;;;;;;;5082797;28;20487;-67
2022/03/23 11:45:58;;;;;;;1.30;1.30;;;;;;;;;;5072401;28;20242;-67
2022/03/23 11:48:52;;;;;;;0.00;0.00;;;;;;;;;;5082672;28;20226;-68
2022/03/23 11:51:28;;;;;;;0.03;0.03;;;;;;;;;;5072299;28;20243;-66
2022/03/23 11:54:00;;;;;;;0.00;0.00;;;;;;;;;;5083338;28;20479;-68
2022/03/23 11:56:28;;;;;;;0.00;0.00;;;;;;;;;;5072243;28;20235;-68
2022/03/23 11:58:55;;;;;;;2.50;2.45;;;;;;;;;;5082462;28;20203;-72
2022/03/23 12:01:30;;;;;;;0.00;0.00;;;;;;;;;;5071969;28;20293;-68
2022/03/23 12:04:02;;;;;;;5.20;5.00;;;;;;;;;;5082317;28;20214;-67
2022/03/23 12:06:38;;;;;;;0.00;0.00;;;;;;;;;;5071955;28;20239;-75
2022/03/23 12:09:04;;;;;;;0.00;0.00;;;;;;;;;;5082035;28;20206;-70
2022/03/23 12:11:31;;;;;;;30.40;19.15;;;;;;;;;;5071627;28;20542;-72
2022/03/23 12:13:58;;;;;;;0.00;0.00;;;;;;;;;;5082230;28;20250;-69
2022/03/23 12:16:55;;;;;;;0.00;0.00;;;;;;;;;;5071706;28;20270;-70
2022/03/23 12:19:24;;;;;;;1.02;0.95;;;;;;;;;;5082249;28;20399;-73
2022/03/23 12:21:56;;;;;;;0.00;0.00;;;;;;;;;;5071722;28;20238;-66
2022/03/23 12:24:29;;;;;;;0.00;0.00;;;;;;;;;;5083156;28;20200;-65
2022/03/23 12:26:56;;;;;;;0.00;0.00;;;;;;;;;;5071879;28;20277;-64
2022/03/23 12:29:25;;;;;;;0.00;0.00;;;;;;;;;;5082272;28;20214;-67
2022/03/23 12:32:12;;;;;;;;;;;;;;;;;;;;;
2022/03/23 12:34:39;;;;;;;0.00;0.00;;;;;;;;;;5082402;28;20250;-72
2022/03/23 12:37:09;;;;;;;3.03;2.92;;;;;;;;;;5071133;28;20231;-71
2022/03/23 12:39:37;;;;;;;0.30;0.30;;;;;;;;;;5082780;28;20199;-73
2022/03/23 12:42:17;;;;;;;0.40;0.40;;;;;;;;;;5070497;28;20255;-71
2022/03/23 12:44:45;;;;;;;0.85;0.82;;;;;;;;;;5082698;28;20213;-71
2022/03/23 12:47:15;;;;;;;1.75;1.75;;;;;;;;;;5071274;28;20242;-70
2022/03/23 12:58:04;;;;;;;0.10;0.10;;;;;;;;;;5081881;28;20262;-67
2022/03/23 13:00:31;;;;;;;0.00;0.00;;;;;;;;;;5071755;28;20569;-66
2022/03/23 13:03:18;;;;;;;0.00;0.00;;;;;;;;;;5081125;28;20472;-65
2022/03/23 13:06:00;;;;;;;2.00;1.92;;;;;;;;;;5071106;28;20590;-65
2022/03/23 13:08:38;;;;;;;0.05;0.05;;;;;;;;;;5080626;28;20498;-65
2022/03/23 13:11:05;;;;;;;0.10;0.10;;;;;;;;;;5071193;28;20239;-66
2022/03/23 13:13:33;;;;;;;0.00;0.00;;;;;;;;;;5081315;28;20270;-65
2022/03/23 13:15:59;;;;;;;0.10;0.10;;;;;;;;;;5062796;28;20242;-66
2022/03/23 13:18:28;;;;;;;0.10;0.10;;;;;;;;;;5081255;28;20223;-66
2022/03/23 13:20:56;;;;;;;5.38;5.10;;;;;;;;;;5073564;28;20262;-65
2022/03/23 13:23:22;;;;;;;0.00;0.00;;;;;;;;;;5085476;28;20207;-65
2022/03/23 13:26:02;;;;;;;0.00;0.00;;;;;;;;;;5074988;28;20239;-66
2022/03/23 13:28:28;;;;;;;0.00;0.00;;;;;;;;;;5085455;28;20188;-64
2022/03/23 13:30:57;;;;;;;0.30;0.30;;;;;;;;;;5075209;28;20298;-65
2022/03/23 13:33:24;;;;;;;0.00;0.00;;;;;;;;;;5082220;28;20211;-67
2022/03/23 13:35:51;;;;;;;0.00;0.00;;;;;;;;;;5074304;28;20456;-66
2022/03/23 13:38:18;;;;;;;2.72;2.63;;;;;;;;;;5081269;28;20227;-66
2022/03/23 13:43:32;;;;;;;0.00;0.00;;;;;;;;;;5084540;28;20214;-66
2022/03/23 13:45:59;;;;;;;0.00;0.00;;;;;;;;;;5074309;28;20246;-65
2022/03/23 13:48:26;;;;;;;0.00;0.00;;;;;;;;;;5084561;28;20200;-67
2022/03/23 13:50:54;;;;;;;0.00;0.00;;;;;;;;;;5074294;28;20250;-65
2022/03/23 13:53:21;;;;;;;0.10;0.10;;;;;;;;;;5084203;28;20246;-66
2022/03/23 13:55:48;;;;;;;0.00;0.00;;;;;;;;;;5073943;28;20239;-66
2022/03/23 13:58:16;;;;;;;0.00;0.00;;;;;;;;;;5084480;28;20281;-67
2022/03/23 14:00:42;;;;;;;0.00;0.00;;;;;;;;;;5074398;28;20285;-66
2022/03/23 14:03:09;;;;;;;0.00;0.00;;;;;;;;;;5084001;28;20212;-66
2022/03/23 14:05:36;;;;;;;0.00;0.00;;;;;;;;;;5073881;28;20251;-65
2022/03/23 14:08:05;;;;;;;0.00;0.00;;;;;;;;;;5084004;28;20196;-65
2022/03/23 14:10:33;;;;;;;0.00;0.00;;;;;;;;;;5074257;28;20301;-65
2022/03/23 14:13:03;;;;;;;0.00;0.00;;;;;;;;;;5083539;28;20203;-65
2022/03/23 14:15:31;;;;;;;0.10;0.10;;;;;;;;;;5074062;28;20239;-64
2022/03/23 14:17:59;;;;;;;0.00;0.00;;;;;;;;;;5083710;28;20458;-65
2022/03/23 14:20:25;;;;;;;0.00;0.00;;;;;;;;;;5074097;28;20425;-67
2022/03/23 14:22:53;;;;;;;0.00;0.00;;;;;;;;;;5083597;28;20426;-65
2022/03/23 14:25:21;;;;;;;3.47;3.38;;;;;;;;;;5073741;28;20428;-63
2022/03/23 14:27:49;;;;;;;0.00;0.00;;;;;;;;;;5083264;28;20203;-67
2022/03/23 14:30:17;;;;;;;0.00;0.00;;;;;;;;;;5073936;28;20239;-63
2022/03/23 14:32:45;;;;;;;0.25;0.25;;;;;;;;;;5082170;28;20203;-66
2022/03/23 14:35:13;;;;;;;0.00;0.00;;;;;;;;;;5073754;28;20234;-66
2022/03/23 14:37:40;;;;;;;0.00;0.00;;;;;;;;;;5083307;28;20270;-65
2022/03/23 14:40:19;;;;;;;0.20;0.20;;;;;;;;;;5074118;28;20392;-64
2022/03/23 14:42:48;;;;;;;0.45;0.45;;;;;;;;;;5083344;28;20206;-65
2022/03/23 14:45:27;;;;;;;0.10;0.10;;;;;;;;;;5073767;28;20199;-65
2022/03/23 14:47:54;;;;;;;2.97;2.30;;;;;;;;;;5083685;28;20203;-65
2022/03/23 14:50:20;;;;;;;0.00;0.00;;;;;;;;;;5073750;28;20223;-64
2022/03/23 14:52:46;;;;;;;0.00;0.00;;;;;;;;;;5083595;28;20221;-65
2022/03/23 14:55:13;;;;;;;0.10;0.10;;;;;;;;;;5073826;28;20303;-64
2022/03/23 14:57:39;;;;;;;0.00;0.00;;;;;;;;;;5083149;28;20219;-64
2022/03/23 15:00:07;;;;;;;0.00;0.00;;;;;;;;;;5077138;28;20203;-65
2022/03/23 15:02:34;;;;;;;2.38;2.38;;;;;;;;;;5082811;28;20495;-66
2022/03/23 15:05:01;;;;;;;0.00;0.00;;;;;;;;;;5084292;28;20253;-65
2022/03/23 15:13:18;;;;;;;0.80;0.80;;;;;;;;;;5071624;28;20227;-64
2022/03/23 15:15:47;;;;;;;0.00;0.00;;;;;;;;;;5073203;28;20242;-64
2022/03/23 15:18:13;;;;;;;0.00;0.00;;;;;;;;;;5083146;28;20265;-65
2022/03/23 15:20:40;;;;;;;2.20;2.15;;;;;;;;;;5073393;28;20239;-64
2022/03/23 15:23:07;;;;;;;0.00;0.00;;;;;;;;;;5083326;28;20245;-64
2022/03/23 15:25:34;;;;;;;0.90;0.90;;;;;;;;;;5073404;28;20239;-66
2022/03/23 15:28:00;;;;;;;0.00;0.00;;;;;;;;;;5082882;28;20249;-65
2022/03/23 15:30:27;;;;;;;0.00;0.00;;;;;;;;;;5073419;28;20242;-64
2022/03/23 15:32:54;;;;;;;0.00;0.00;;;;;;;;;;5082718;28;20229;-65
2022/03/23 15:35:21;;;;;;;0.00;0.00;;;;;;;;;;5073177;28;20234;-64
2022/03/23 15:37:48;;;;;;;0.00;0.00;;;;;;;;;;5082680;28;20305;-65
2022/03/23 15:40:14;;;;;;;0.00;0.00;;;;;;;;;;5073061;28;20234;-66